createdAt,value
2024-04-18T00:01:03.978Z,1.88
2024-04-18T00:03:31.834Z,2.20
2024-04-18T00:05:58.859Z,2.10
2024-04-18T00:08:25.660Z,2.30
2024-04-18T00:10:55.318Z,2.00
2024-04-18T00:13:22.051Z,1.65
2024-04-18T00:15:48.890Z,1.98
2024-04-18T00:18:15.764Z,1.75
2024-04-18T00:20:42.558Z,2.30
2024-04-18T00:23:09.355Z,2.47
2024-04-18T00:25:36.124Z,2.42
2024-04-18T00:28:02.952Z,2.05
2024-04-18T00:30:29.763Z,2.20
2024-04-18T00:32:56.602Z,2.22
2024-04-18T00:35:23.341Z,2.45
2024-04-18T00:37:50.197Z,2.05
2024-04-18T00:40:16.994Z,2.60
2024-04-18T00:42:43.769Z,2.28
2024-04-18T00:45:10.701Z,2.10
2024-04-18T00:47:38.170Z,2.17
2024-04-18T00:50:08.695Z,2.60
2024-04-18T00:52:35.665Z,2.78
2024-04-18T00:55:04.558Z,2.30
2024-04-18T00:57:33.559Z,2.63
2024-04-18T01:00:00.799Z,2.40
2024-04-18T01:02:28.866Z,3.15
2024-04-18T01:04:55.966Z,2.65
2024-04-18T01:07:22.939Z,3.15
2024-04-18T01:09:51.309Z,2.70
2024-04-18T01:12:18.142Z,2.90
2024-04-18T01:14:45.001Z,3.75
2024-04-18T01:17:12.284Z,3.05
2024-04-18T01:19:39.781Z,3.00
2024-04-18T01:22:06.571Z,2.80
2024-04-18T01:24:33.738Z,3.53
2024-04-18T01:27:00.844Z,3.47
2024-04-18T01:29:28.311Z,3.92
2024-04-18T01:31:55.210Z,3.10
2024-04-18T01:34:22.099Z,3.45
2024-04-18T01:36:49.811Z,3.35
2024-04-18T01:39:16.963Z,4.38
2024-04-18T01:41:43.823Z,4.32
2024-04-18T01:44:11.867Z,3.55
2024-04-18T01:46:38.732Z,3.22
2024-04-18T01:49:05.691Z,4.00
2024-04-18T01:51:32.536Z,3.80
2024-04-18T01:53:59.263Z,4.47
2024-04-18T01:56:26.009Z,4.43
2024-04-18T01:58:52.784Z,4.05
2024-04-18T02:01:24.679Z,4.20
2024-04-18T02:03:52.095Z,4.13
2024-04-18T02:06:19.061Z,4.40
2024-04-18T02:08:45.985Z,4.30
2024-04-18T02:11:12.972Z,4.30
2024-04-18T02:13:39.933Z,3.53
2024-04-18T02:16:06.738Z,4.20
2024-04-18T02:18:33.730Z,3.55
2024-04-18T02:21:00.719Z,4.85
2024-04-18T02:23:27.756Z,3.95
2024-04-18T02:25:54.575Z,3.85
2024-04-18T02:28:21.653Z,4.32
2024-04-18T02:30:48.575Z,4.70
2024-04-18T02:33:17.504Z,4.53
2024-04-18T02:35:44.781Z,5.13
2024-04-18T02:38:11.803Z,4.43
2024-04-18T02:40:38.746Z,4.15
2024-04-18T02:43:05.545Z,4.30
2024-04-18T02:45:32.477Z,3.90
2024-04-18T02:47:59.435Z,4.80
2024-04-18T02:50:26.223Z,4.22
2024-04-18T02:52:53.074Z,4.28
2024-04-18T02:55:19.849Z,4.28
2024-04-18T02:57:46.818Z,4.63
2024-04-18T03:00:13.960Z,4.60
2024-04-18T03:02:40.786Z,4.43
2024-04-18T03:05:07.579Z,4.50
2024-04-18T03:07:34.399Z,4.82
2024-04-18T03:10:01.165Z,5.35
2024-04-18T03:12:28.449Z,5.15
2024-04-18T03:14:55.518Z,5.40
2024-04-18T03:17:22.339Z,4.35
2024-04-18T03:19:49.112Z,5.13
2024-04-18T03:22:17.511Z,5.00
2024-04-18T03:24:44.414Z,4.53
2024-04-18T03:27:11.249Z,4.95
2024-04-18T03:29:38.034Z,4.78
2024-04-18T03:32:05.430Z,5.97
2024-04-18T03:34:32.397Z,4.55
2024-04-18T03:36:59.221Z,5.38
2024-04-18T03:39:29.489Z,5.20
2024-04-18T03:41:56.271Z,5.18
2024-04-18T03:44:23.161Z,5.90
2024-04-18T03:46:49.927Z,5.68
2024-04-18T03:49:16.767Z,5.60
2024-04-18T03:51:43.563Z,5.38
2024-04-18T03:54:10.461Z,4.85
2024-04-18T03:56:37.197Z,6.28
2024-04-18T03:59:04.136Z,5.32
2024-04-18T04:01:31.253Z,5.25
2024-04-18T04:03:58.569Z,5.93
2024-04-18T04:06:25.610Z,5.93
2024-04-18T04:08:52.556Z,5.65
2024-04-18T04:11:19.860Z,5.60
2024-04-18T04:13:47.012Z,5.63
2024-04-18T04:16:13.953Z,5.70
2024-04-18T04:18:41.017Z,6.07
2024-04-18T04:21:09.043Z,6.88
2024-04-18T04:23:37.631Z,5.90
2024-04-18T04:26:04.587Z,6.03
2024-04-18T04:28:31.328Z,6.50
2024-04-18T04:30:58.153Z,6.35
2024-04-18T04:33:28.755Z,6.25
2024-04-18T04:35:56.126Z,6.93
2024-04-18T04:38:22.962Z,7.22
2024-04-18T04:40:49.719Z,7.68
2024-04-18T04:43:16.604Z,7.28
2024-04-18T04:45:43.355Z,7.60
2024-04-18T04:48:10.207Z,7.18
2024-04-18T04:50:42.058Z,7.22
2024-04-18T04:53:09.025Z,6.63
2024-04-18T04:55:35.811Z,7.45
2024-04-18T04:58:03.165Z,7.15
2024-04-18T05:00:30.073Z,7.57
2024-04-18T05:02:57.032Z,7.60
2024-04-18T05:05:23.907Z,8.07
2024-04-18T05:07:54.828Z,7.60
2024-04-18T05:10:22.321Z,7.60
2024-04-18T05:12:50.567Z,8.80
2024-04-18T05:15:17.785Z,8.45
2024-04-18T05:17:44.686Z,8.95
2024-04-18T05:20:12.243Z,8.13
2024-04-18T05:22:39.032Z,8.10
2024-04-18T05:25:06.157Z,8.18
2024-04-18T05:27:33.960Z,9.60
2024-04-18T05:30:19.377Z,10.20
2024-04-18T05:32:46.428Z,10.50
2024-04-18T05:35:13.923Z,9.80
2024-04-18T05:37:40.755Z,10.27
2024-04-18T05:40:08.289Z,9.88
2024-04-18T05:42:35.063Z,9.68
2024-04-18T05:45:01.974Z,9.07
2024-04-18T05:47:29.397Z,10.93
2024-04-18T05:49:57.822Z,12.20
2024-04-18T05:52:24.582Z,10.95
2024-04-18T05:54:51.602Z,10.73
2024-04-18T05:57:18.453Z,10.70
2024-04-18T05:59:45.258Z,10.15
2024-04-18T06:02:13.734Z,10.80
2024-04-18T06:04:40.728Z,12.37
2024-04-18T06:07:07.579Z,11.32
2024-04-18T06:09:34.326Z,10.95
2024-04-18T06:12:01.081Z,10.90
2024-04-18T06:14:27.817Z,11.68
2024-04-18T06:16:54.683Z,11.20
2024-04-18T06:19:21.429Z,10.77
2024-04-18T06:21:48.172Z,10.80
2024-04-18T06:24:16.347Z,11.40
2024-04-18T06:26:43.091Z,11.57
2024-04-18T06:29:11.565Z,12.30
2024-04-18T06:31:38.316Z,11.67
2024-04-18T06:34:05.807Z,10.65
2024-04-18T06:36:33.009Z,10.82
2024-04-18T06:39:00.406Z,10.82
2024-04-18T06:41:27.221Z,10.82
2024-04-18T06:43:53.938Z,10.90
2024-04-18T06:46:21.240Z,11.52
2024-04-18T06:48:48.170Z,10.27
2024-04-18T06:51:15.088Z,11.18
2024-04-18T06:53:41.913Z,10.38
2024-04-18T06:56:08.721Z,11.27
2024-04-18T06:58:35.506Z,12.18
2024-04-18T07:01:02.477Z,10.20
2024-04-18T07:03:29.486Z,10.50
2024-04-18T07:05:56.368Z,9.48
2024-04-18T07:08:25.597Z,9.88
2024-04-18T07:13:20.901Z,10.77
2024-04-18T07:15:47.727Z,10.02
2024-04-18T07:18:14.608Z,10.60
2024-04-18T07:20:41.461Z,9.18
2024-04-18T07:23:08.300Z,10.60
2024-04-18T07:25:38.564Z,11.80
2024-04-18T07:28:05.399Z,10.32
2024-04-18T07:30:32.851Z,9.38
2024-04-18T07:32:59.858Z,9.77
2024-04-18T07:35:26.865Z,9.05
2024-04-18T07:37:53.665Z,8.65
2024-04-18T07:40:22.591Z,8.15
2024-04-18T07:42:52.887Z,7.03
2024-04-18T07:45:20.175Z,8.32
2024-04-18T07:47:47.296Z,6.93
2024-04-18T07:50:14.494Z,6.93
2024-04-18T07:52:44.983Z,6.72
2024-04-18T07:55:17.199Z,6.80
2024-04-18T07:57:44.586Z,6.78
2024-04-18T08:00:12.791Z,6.88
2024-04-18T08:02:42.122Z,6.25
2024-04-18T08:05:11.680Z,6.32
2024-04-18T08:07:42.252Z,6.57
2024-04-18T08:10:13.809Z,6.35
2024-04-18T08:12:45.740Z,6.22
2024-04-18T08:15:18.119Z,6.82
2024-04-18T08:17:47.803Z,5.72
2024-04-18T08:20:14.738Z,6.28
2024-04-18T08:22:41.647Z,6.60
2024-04-18T08:25:08.832Z,6.40
2024-04-18T08:27:36.752Z,6.22
2024-04-18T08:30:04.512Z,6.25
2024-04-18T08:32:31.399Z,6.18
2024-04-18T08:34:58.226Z,5.90
2024-04-18T08:37:24.984Z,5.85
2024-04-18T08:39:51.789Z,6.28
2024-04-18T08:42:27.477Z,5.40
2024-04-18T08:44:57.307Z,5.75
2024-04-18T08:47:28.432Z,5.82
2024-04-18T08:49:55.750Z,5.78
2024-04-18T08:52:23.076Z,5.63
2024-04-18T08:54:50.004Z,5.38
2024-04-18T08:57:22.616Z,5.18
2024-04-18T08:59:55.219Z,4.70
2024-04-18T09:02:22.067Z,5.13
2024-04-18T09:04:48.993Z,5.18
2024-04-18T09:07:15.805Z,5.32
2024-04-18T09:09:42.572Z,5.05
2024-04-18T09:12:09.467Z,5.40
2024-04-18T09:14:36.324Z,5.25
2024-04-18T09:17:03.056Z,4.97
2024-04-18T09:19:29.843Z,4.95
2024-04-18T09:22:00.439Z,5.30
2024-04-18T09:24:27.546Z,5.55
2024-04-18T09:26:54.293Z,4.88
2024-04-18T09:29:22.653Z,6.72
2024-04-18T09:31:49.827Z,6.07
2024-04-18T09:34:19.729Z,5.22
2024-04-18T09:36:47.051Z,6.43
2024-04-18T09:39:27.627Z,8.15
2024-04-18T09:42:02.316Z,7.80
2024-04-18T09:44:32.187Z,6.50
2024-04-18T09:47:00.182Z,7.28
2024-04-18T09:49:28.392Z,6.70
2024-04-18T09:51:57.091Z,6.68
2024-04-18T09:54:24.294Z,6.23
2024-04-18T09:56:53.196Z,5.95
2024-04-18T09:59:22.163Z,6.10
2024-04-18T10:01:50.242Z,5.68
2024-04-18T10:04:17.195Z,7.40
2024-04-18T10:06:47.554Z,7.60
2024-04-18T10:09:17.005Z,7.30
2024-04-18T10:11:44.341Z,8.25
2024-04-18T10:14:11.223Z,7.15
2024-04-18T10:16:56.217Z,7.85
2024-04-18T10:19:30.674Z,6.80
2024-04-18T10:24:36.614Z,5.88
2024-04-18T10:27:09.034Z,6.13
2024-04-18T10:29:36.098Z,5.88
2024-04-18T10:32:05.980Z,5.75
2024-04-18T10:34:34.222Z,5.82
2024-04-18T10:37:09.554Z,6.00
2024-04-18T10:39:41.951Z,5.65
2024-04-18T10:42:10.058Z,6.05
2024-04-18T10:44:38.070Z,5.32
2024-04-18T10:47:08.664Z,5.03
2024-04-18T10:49:35.742Z,4.80
2024-04-18T10:52:02.702Z,4.22
2024-04-18T10:54:29.480Z,4.68
2024-04-18T10:56:56.656Z,4.85
2024-04-18T10:59:23.534Z,4.47
2024-04-18T11:01:50.424Z,4.72
2024-04-18T11:04:17.220Z,4.85
2024-04-18T11:06:45.310Z,5.00
2024-04-18T11:09:12.219Z,3.80
2024-04-18T11:11:39.843Z,3.83
2024-04-18T11:14:08.061Z,3.70
2024-04-18T11:16:36.243Z,3.88
2024-04-18T11:19:03.421Z,4.10
2024-04-18T11:21:30.727Z,3.30
2024-04-18T11:23:58.214Z,3.65
2024-04-18T11:26:29.522Z,3.17
2024-04-18T11:28:57.976Z,3.30
2024-04-18T11:31:24.920Z,2.88
2024-04-18T11:33:52.443Z,2.78
2024-04-18T11:36:20.212Z,2.58
2024-04-18T11:38:48.245Z,2.30
2024-04-18T11:41:15.176Z,2.50
2024-04-18T11:43:42.503Z,2.22
2024-04-18T11:46:09.367Z,2.40
2024-04-18T11:48:36.804Z,2.35
2024-04-18T11:51:04.076Z,2.05
2024-04-18T11:53:31.725Z,1.80
2024-04-18T11:55:59.999Z,2.15
2024-04-18T11:58:27.526Z,1.98
2024-04-18T12:00:54.299Z,2.25
2024-04-18T12:03:21.509Z,1.95
2024-04-18T12:05:48.364Z,2.00
2024-04-18T12:08:15.106Z,2.20
2024-04-18T12:10:41.861Z,1.85
2024-04-18T12:13:08.684Z,1.60
2024-04-18T12:15:35.651Z,1.75
2024-04-18T12:18:03.882Z,1.70
2024-04-18T12:20:30.770Z,1.40
2024-04-18T12:22:57.512Z,1.40
2024-04-18T12:25:24.374Z,1.58
2024-04-18T12:27:51.243Z,1.38
2024-04-18T12:30:18.103Z,1.25
2024-04-18T12:32:45.049Z,1.30
2024-04-18T12:35:12.045Z,1.20
2024-04-18T12:37:38.786Z,1.20
2024-04-18T12:40:06.668Z,1.40
2024-04-18T12:42:35.242Z,1.20
2024-04-18T12:45:02.286Z,1.37
2024-04-18T12:47:29.691Z,1.48
2024-04-18T12:49:56.759Z,1.63
2024-04-18T12:52:23.731Z,1.40
2024-04-18T12:54:50.595Z,1.63
2024-04-18T12:57:17.442Z,1.52
2024-04-18T12:59:44.556Z,1.60
2024-04-18T13:02:13.205Z,1.45
2024-04-18T13:04:40.143Z,2.00
2024-04-18T13:07:07.323Z,1.60
2024-04-18T13:09:34.550Z,1.65
2024-04-18T13:12:05.670Z,1.20
2024-04-18T13:14:32.596Z,1.38
2024-04-18T13:16:59.436Z,1.15
2024-04-18T13:19:26.221Z,1.20
2024-04-18T13:21:53.656Z,1.20
2024-04-18T13:24:24.009Z,1.10
2024-04-18T13:26:51.479Z,1.10
2024-04-18T13:29:19.063Z,1.35
2024-04-18T13:31:49.052Z,1.38
2024-04-18T13:34:15.822Z,1.60
2024-04-18T13:36:42.716Z,1.42
2024-04-18T13:39:10.100Z,1.40
2024-04-18T13:41:42.212Z,1.30
2024-04-18T13:44:08.957Z,1.08
2024-04-18T13:46:36.077Z,1.30
2024-04-18T13:49:03.030Z,1.40
2024-04-18T13:51:30.037Z,1.30
2024-04-18T13:53:57.527Z,1.40
2024-04-18T13:56:24.742Z,1.27
2024-04-18T13:58:51.570Z,1.20
2024-04-18T14:01:18.328Z,1.45
2024-04-18T14:03:45.183Z,1.40
2024-04-18T14:06:12.034Z,1.10
2024-04-18T14:08:42.650Z,1.20
2024-04-18T14:11:09.545Z,1.20
2024-04-18T14:13:36.473Z,1.40
2024-04-18T14:16:22.215Z,1.73
2024-04-18T14:18:52.202Z,1.17
2024-04-18T14:21:19.818Z,1.30
2024-04-18T14:23:46.660Z,1.08
2024-04-18T14:26:13.429Z,0.90
2024-04-18T14:28:40.203Z,0.80
2024-04-18T14:31:06.953Z,0.98
2024-04-18T14:33:33.880Z,0.88
2024-04-18T14:36:00.730Z,0.95
2024-04-18T14:38:27.703Z,0.80
2024-04-18T14:41:02.083Z,1.00
2024-04-18T14:43:36.541Z,0.80
2024-04-18T14:46:03.428Z,1.00
2024-04-18T14:48:30.218Z,1.17
2024-04-18T14:50:57.005Z,0.80
2024-04-18T14:53:26.795Z,1.17
2024-04-18T14:55:54.439Z,1.13
2024-04-18T14:58:21.179Z,1.20
2024-04-18T15:00:52.484Z,0.90
2024-04-18T15:03:20.267Z,0.77
2024-04-18T15:05:55.928Z,1.00
2024-04-18T15:08:23.327Z,1.02
2024-04-18T15:10:50.263Z,1.02
2024-04-18T15:13:17.148Z,1.25
2024-04-18T15:15:44.784Z,1.42
2024-04-18T15:18:15.064Z,1.55
2024-04-18T15:20:42.130Z,1.20
2024-04-18T15:23:09.961Z,1.40
2024-04-18T15:25:36.964Z,1.25
2024-04-18T15:28:03.925Z,1.30
2024-04-18T15:30:30.838Z,1.20
2024-04-18T15:32:57.746Z,1.20
2024-04-18T15:35:24.566Z,1.55
2024-04-18T15:37:51.357Z,1.30
2024-04-18T15:40:19.021Z,1.45
2024-04-18T15:42:45.860Z,1.30
2024-04-18T15:45:12.739Z,1.08
2024-04-18T15:47:39.697Z,1.08
2024-04-18T15:50:06.745Z,1.10
2024-04-18T15:52:34.902Z,1.02
2024-04-18T15:55:12.304Z,0.98
2024-04-18T15:57:43.286Z,1.10
2024-04-18T16:00:11.233Z,1.15
2024-04-18T16:02:38.309Z,1.30
2024-04-18T16:05:05.688Z,1.67
2024-04-18T16:07:32.603Z,1.88
2024-04-18T16:09:59.733Z,1.20
2024-04-18T16:12:26.927Z,1.13
2024-04-18T16:14:53.856Z,1.10
2024-04-18T16:17:20.689Z,1.30
2024-04-18T16:19:49.670Z,1.48
2024-04-18T16:22:16.848Z,1.38
2024-04-18T16:24:43.702Z,1.35
2024-04-18T16:27:10.584Z,1.40
2024-04-18T16:29:37.327Z,1.38
2024-04-18T16:32:04.360Z,1.50
2024-04-18T16:34:31.105Z,1.40
2024-04-18T16:37:09.234Z,1.20
2024-04-18T16:39:40.070Z,1.23
2024-04-18T16:42:07.619Z,1.40
2024-04-18T16:44:34.552Z,1.10
2024-04-18T16:47:01.379Z,1.25
2024-04-18T16:49:28.653Z,1.40
2024-04-18T16:51:55.573Z,1.35
2024-04-18T16:54:22.464Z,1.48
2024-04-18T16:56:49.318Z,1.58
2024-04-18T16:59:16.358Z,1.58
2024-04-18T17:01:43.153Z,1.55
2024-04-18T17:04:10.004Z,1.02
2024-04-18T17:06:45.473Z,1.63
2024-04-18T17:09:15.833Z,1.35
2024-04-18T17:11:42.785Z,1.83
2024-04-18T17:14:09.842Z,1.38
2024-04-18T17:16:36.720Z,1.50
2024-04-18T17:19:04.188Z,1.25
2024-04-18T17:21:31.305Z,1.40
2024-04-18T17:23:58.296Z,1.58
2024-04-18T17:26:27.445Z,1.50
2024-04-18T17:28:55.775Z,1.95
2024-04-18T17:31:22.694Z,2.00
2024-04-18T17:33:49.487Z,1.85
2024-04-18T17:36:16.374Z,1.73
2024-04-18T17:38:44.340Z,1.52
2024-04-18T17:41:11.163Z,1.40
2024-04-18T17:43:37.994Z,1.55
2024-04-18T17:46:05.366Z,1.40
2024-04-18T17:48:32.457Z,1.70
2024-04-18T17:50:59.343Z,1.70
2024-04-18T17:53:26.236Z,1.75
2024-04-18T17:55:54.880Z,1.70
2024-04-18T17:58:22.296Z,2.20
2024-04-18T18:00:49.673Z,2.40
2024-04-18T18:03:16.712Z,1.80
2024-04-18T18:05:43.811Z,2.17
2024-04-18T18:08:10.663Z,3.20
2024-04-18T18:10:37.755Z,2.70
2024-04-18T18:13:04.856Z,3.05
2024-04-18T18:15:31.999Z,3.22
2024-04-18T18:17:59.459Z,3.40
2024-04-18T18:20:26.348Z,3.33
2024-04-18T18:22:53.199Z,3.88
2024-04-18T18:25:20.009Z,3.22
2024-04-18T18:27:46.879Z,3.22
2024-04-18T18:30:14.829Z,3.33
2024-04-18T18:32:41.979Z,3.33
2024-04-18T18:35:09.730Z,3.80
2024-04-18T18:37:36.778Z,3.97
2024-04-18T18:40:03.920Z,3.55
2024-04-18T18:42:30.853Z,3.78
2024-04-18T18:44:57.707Z,4.07
2024-04-18T18:47:24.576Z,4.22
2024-04-18T18:49:51.426Z,4.38
2024-04-18T18:52:19.707Z,4.95
2024-04-18T18:54:46.627Z,4.57
2024-04-18T18:57:13.557Z,4.80
2024-04-18T18:59:43.919Z,4.10
2024-04-18T19:02:10.903Z,4.55
2024-04-18T19:04:37.812Z,4.38
2024-04-18T19:07:04.868Z,4.30
2024-04-18T19:09:32.906Z,5.40
2024-04-18T19:11:59.863Z,5.10
2024-04-18T19:14:28.131Z,7.32
2024-04-18T19:16:55.249Z,10.38
2024-04-18T19:19:24.304Z,13.60
2024-04-18T19:21:51.251Z,11.98
2024-04-18T19:24:18.228Z,8.48
2024-04-18T19:26:44.980Z,8.52
2024-04-18T19:29:14.231Z,8.80
2024-04-18T19:34:07.825Z,8.95
2024-04-18T19:36:34.710Z,8.63
2024-04-18T19:39:01.494Z,8.05
2024-04-18T19:41:28.307Z,7.63
2024-04-18T19:43:55.583Z,7.13
2024-04-18T19:46:28.155Z,6.85
2024-04-18T19:48:56.144Z,6.65
2024-04-18T19:51:23.293Z,7.22
2024-04-18T19:53:50.047Z,6.97
2024-04-18T19:56:16.911Z,6.32
2024-04-18T19:58:43.795Z,5.72
2024-04-18T20:01:10.532Z,6.97
2024-04-18T20:03:37.451Z,6.80
2024-04-18T20:06:04.861Z,7.18
2024-04-18T20:08:31.758Z,7.25
2024-04-18T20:10:58.513Z,7.80
2024-04-18T20:13:25.301Z,7.22
2024-04-18T20:15:52.034Z,6.65
2024-04-18T20:18:18.957Z,7.30
2024-04-18T20:20:48.094Z,6.35
2024-04-18T20:23:15.344Z,6.88
2024-04-18T20:25:42.465Z,5.32
2024-04-18T20:28:09.248Z,5.97
2024-04-18T20:30:36.083Z,8.32
2024-04-18T20:33:02.882Z,8.27
2024-04-18T20:35:32.550Z,10.55
2024-04-18T20:37:59.414Z,10.45
2024-04-18T20:40:26.177Z,10.63
2024-04-18T20:42:53.009Z,12.57
2024-04-18T20:45:19.799Z,10.68
2024-04-18T20:47:46.733Z,11.55
2024-04-18T20:50:13.663Z,10.38
2024-04-18T20:52:40.440Z,9.27
2024-04-18T20:55:07.503Z,7.45
2024-04-18T20:57:34.322Z,6.88
2024-04-18T21:00:01.092Z,5.75
2024-04-18T21:02:28.426Z,5.15
2024-04-18T21:04:55.372Z,4.68
2024-04-18T21:07:23.447Z,4.57
2024-04-18T21:09:50.277Z,4.47
2024-04-18T21:12:17.507Z,4.93
2024-04-18T21:14:44.478Z,4.68
2024-04-18T21:17:11.275Z,4.90
2024-04-18T21:19:38.260Z,4.13
2024-04-18T21:22:06.853Z,4.40
2024-04-18T21:24:33.741Z,3.97
2024-04-18T21:27:00.622Z,3.95
2024-04-18T21:29:27.508Z,4.22
2024-04-18T21:31:54.231Z,3.42
2024-04-18T21:34:21.002Z,3.42
2024-04-18T21:36:47.820Z,3.55
2024-04-18T21:39:14.805Z,3.58
2024-04-18T21:41:43.027Z,4.18
2024-04-18T21:44:10.589Z,3.10
2024-04-18T21:46:37.413Z,3.10
2024-04-18T21:49:04.329Z,2.85
2024-04-18T21:51:31.364Z,2.50
2024-04-18T21:53:58.177Z,2.80
2024-04-18T21:56:25.029Z,2.95
2024-04-18T21:58:53.572Z,2.47
2024-04-18T22:01:20.462Z,2.27
2024-04-18T22:03:47.368Z,2.40
2024-04-18T22:06:14.292Z,2.42
2024-04-18T22:08:41.063Z,2.10
2024-04-18T22:11:07.876Z,2.10
2024-04-18T22:13:34.627Z,2.53
2024-04-18T22:16:01.398Z,2.20
2024-04-18T22:18:28.370Z,2.08
2024-04-18T22:20:57.744Z,2.10
2024-04-18T22:23:24.627Z,2.00
2024-04-18T22:25:51.593Z,1.67
2024-04-18T22:28:18.384Z,1.67
2024-04-18T22:30:45.381Z,1.60
2024-04-18T22:33:12.251Z,1.50
2024-04-18T22:35:40.351Z,1.88
2024-04-18T22:38:07.207Z,2.00
2024-04-18T22:40:34.107Z,1.50
2024-04-18T22:43:02.554Z,1.67
2024-04-18T22:45:29.402Z,1.80
2024-04-18T22:47:56.915Z,1.42
2024-04-18T22:50:23.844Z,1.80
2024-04-18T22:52:50.706Z,1.67
2024-04-18T22:55:17.594Z,2.30
2024-04-18T22:57:44.527Z,1.77
2024-04-18T23:00:11.995Z,1.90
2024-04-18T23:02:38.800Z,1.83
2024-04-18T23:05:05.888Z,1.70
2024-04-18T23:07:32.772Z,1.85
2024-04-18T23:10:00.621Z,1.77
2024-04-18T23:12:27.534Z,2.00
2024-04-18T23:14:54.334Z,1.65
2024-04-18T23:17:21.198Z,1.83
2024-04-18T23:19:48.056Z,1.88
2024-04-18T23:22:14.844Z,2.30
2024-04-18T23:24:41.763Z,2.20
2024-04-18T23:27:09.049Z,2.00
2024-04-18T23:29:35.957Z,2.17
2024-04-18T23:32:02.751Z,2.13
2024-04-18T23:34:29.522Z,1.88
2024-04-18T23:36:56.281Z,2.20
2024-04-18T23:39:23.127Z,2.35
2024-04-18T23:41:50.193Z,2.10
2024-04-18T23:44:17.053Z,2.63
2024-04-18T23:46:43.962Z,2.25
2024-04-18T23:49:10.860Z,2.10
2024-04-18T23:51:37.834Z,1.90
2024-04-18T23:54:04.604Z,1.88
2024-04-18T23:56:31.449Z,2.15
2024-04-18T23:58:59.345Z,2.17
